Time;durP1;ratioP1;P1;durP2;ratioP2;P2;SDS_P1;SDS_P2;PMS_P1;PMS_P2;Temp;Humidity;BMP_temperature;BMP_pressure;BME280_temperature;BME280_humidity;BME280_pressure;Samples;Min_cycle;Max_cycle;Signal;HPM_P1;HPM_P2
2022/06/03 00:02:07;;;;;;;5.57;3.70;;;15.00;99.90;;;;;;4885896;29;20059;-55
2022/06/03 00:05:12;;;;;;;6.07;3.97;;;15.00;99.90;;;;;;4887077;29;20052;-56
2022/06/03 00:07:52;;;;;;;6.85;4.15;;;15.00;99.90;;;;;;4886978;29;20060;-57
2022/06/03 00:10:42;;;;;;;6.43;4.28;;;15.00;99.90;;;;;;4887033;29;20481;-56
2022/06/03 00:13:31;;;;;;;7.20;3.97;;;15.00;99.90;;;;;;4885281;29;20060;-56
2022/06/03 00:16:26;;;;;;;8.57;4.05;;;14.90;99.90;;;;;;4888112;29;20601;-56
2022/06/03 00:19:03;;;;;;;6.03;3.85;;;14.90;99.90;;;;;;4883802;29;20052;-58
2022/06/03 00:21:56;;;;;;;5.50;3.80;;;14.90;99.90;;;;;;4886432;29;20052;-59
2022/06/03 00:24:40;;;;;;;8.18;4.00;;;14.90;99.90;;;;;;4886114;29;20056;-56
2022/06/03 00:27:34;;;;;;;6.15;3.80;;;14.90;99.90;;;;;;4886013;29;20048;-56
2022/06/03 00:30:10;;;;;;;5.75;3.75;;;14.90;99.90;;;;;;4897387;29;20401;-58
2022/06/03 00:33:26;;;;;;;7.13;3.97;;;14.80;99.90;;;;;;4885785;29;20040;-57
2022/06/03 00:36:16;;;;;;;6.88;3.92;;;14.80;99.90;;;;;;4877264;29;20056;-56
2022/06/03 00:39:30;;;;;;;5.63;4.10;;;14.80;99.90;;;;;;4885294;29;20056;-56
2022/06/03 00:42:22;;;;;;;9.63;4.97;;;14.70;99.90;;;;;;4884421;29;20056;-56
2022/06/03 00:44:56;;;;;;;5.30;3.80;;;14.70;99.90;;;;;;4883498;29;20413;-55
2022/06/03 00:47:36;;;;;;;7.03;4.10;;;14.60;99.90;;;;;;4885748;29;20040;-56
2022/06/03 00:50:42;;;;;;;5.53;4.28;;;14.60;99.90;;;;;;4885410;29;20051;-56
2022/06/03 00:53:36;;;;;;;6.15;4.47;;;14.60;99.90;;;;;;4885049;29;20052;-56
2022/06/03 00:56:15;;;;;;;7.55;4.38;;;14.50;99.90;;;;;;4886157;29;20052;-55
2022/06/03 00:59:12;;;;;;;5.90;3.95;;;14.50;99.90;;;;;;4882584;29;20067;-58
2022/06/03 01:02:08;;;;;;;8.45;3.80;;;14.40;99.90;;;;;;4883560;29;20067;-56
2022/06/03 01:04:58;;;;;;;6.60;4.05;;;14.40;99.90;;;;;;4877602;29;20062;-57
2022/06/03 01:07:59;;;;;;;4.47;3.30;;;14.40;99.90;;;;;;4885142;29;20059;-56
2022/06/03 01:10:45;;;;;;;6.35;3.63;;;14.30;99.90;;;;;;4883730;29;20085;-58
2022/06/03 01:13:32;;;;;;;5.97;4.40;;;14.30;99.90;;;;;;4884081;29;20052;-56
2022/06/03 01:16:21;;;;;;;6.50;3.88;;;14.30;99.90;;;;;;4884996;29;20056;-56
2022/06/03 01:18:55;;;;;;;6.55;3.90;;;14.30;99.90;;;;;;4885606;29;20057;-56
2022/06/03 01:21:41;;;;;;;6.70;4.22;;;14.20;99.90;;;;;;4885408;29;20397;-58
2022/06/03 01:24:37;;;;;;;7.85;4.32;;;14.20;99.90;;;;;;4885151;29;20059;-56
2022/06/03 01:27:05;;;;;;;5.55;3.78;;;14.10;99.90;;;;;;4885662;29;20416;-57
2022/06/03 01:29:54;;;;;;;4.65;3.53;;;14.10;99.90;;;;;;4884976;29;20144;-59
2022/06/03 01:32:40;;;;;;;4.22;3.83;;;14.10;99.90;;;;;;4881506;29;20036;-57
2022/06/03 01:35:45;;;;;;;6.53;3.60;;;14.10;99.90;;;;;;4886142;29;20391;-57
2022/06/03 01:38:36;;;;;;;10.10;4.38;;;14.00;99.90;;;;;;4886971;29;20047;-57
2022/06/03 01:41:10;;;;;;;7.18;3.97;;;14.00;99.90;;;;;;4887073;29;20052;-58
2022/06/03 01:44:05;;;;;;;6.70;4.57;;;14.00;99.90;;;;;;4884472;29;20056;-57
2022/06/03 01:47:11;;;;;;;5.63;3.70;;;13.90;99.90;;;;;;4884682;29;20481;-57
2022/06/03 01:50:11;;;;;;;4.70;3.80;;;13.90;99.90;;;;;;4886990;29;20044;-57
2022/06/03 01:53:00;;;;;;;8.15;3.75;;;13.90;99.90;;;;;;4884503;29;20061;-56
2022/06/03 01:56:09;;;;;;;7.65;3.83;;;13.90;99.90;;;;;;4885968;29;20984;-56
2022/06/03 01:59:05;;;;;;;4.28;3.50;;;13.90;99.90;;;;;;4845681;29;20046;-56
2022/06/03 02:01:51;;;;;;;5.00;3.83;;;13.90;99.90;;;;;;4848588;29;20053;-56
2022/06/03 02:04:21;;;;;;;6.30;3.50;;;13.90;99.90;;;;;;4878832;29;20157;-57
2022/06/03 02:07:04;;;;;;;3.78;3.17;;;14.10;99.90;;;;;;4886929;29;20059;-56
2022/06/03 02:09:55;;;;;;;5.03;3.05;;;13.90;99.90;;;;;;4886727;29;20037;-55
2022/06/03 02:12:23;;;;;;;4.35;3.30;;;13.90;99.90;;;;;;4886686;29;20048;-56
2022/06/03 02:15:23;;;;;;;3.50;2.85;;;13.90;99.90;;;;;;4885727;29;20282;-55
2022/06/03 02:18:03;;;;;;;4.60;3.17;;;13.90;99.90;;;;;;4886442;29;20049;-56
2022/06/03 02:21:01;;;;;;;4.85;3.10;;;13.90;99.90;;;;;;4887325;29;20055;-56
2022/06/03 02:23:55;;;;;;;6.13;3.30;;;13.80;99.90;;;;;;4885078;29;20044;-56
2022/06/03 02:27:04;;;;;;;3.92;3.10;;;13.80;99.90;;;;;;4870526;29;20063;-57
2022/06/03 02:33:15;;;;;;;4.53;3.13;;;13.70;99.90;;;;;;4886956;29;20045;-56
2022/06/03 02:36:11;;;;;;;3.38;2.80;;;13.70;99.90;;;;;;4884952;29;20057;-58
2022/06/03 02:38:59;;;;;;;3.17;2.78;;;13.70;99.90;;;;;;4883434;29;20397;-55
2022/06/03 02:41:36;;;;;;;2.58;2.30;;;13.60;99.90;;;;;;4886562;29;20057;-56
2022/06/03 02:44:40;;;;;;;4.43;3.17;;;13.60;99.90;;;;;;4886725;29;20052;-55
2022/06/03 02:47:26;;;;;;;6.05;2.90;;;13.60;99.90;;;;;;4884690;29;20044;-55
2022/06/03 02:50:15;;;;;;;5.13;3.28;;;13.60;99.90;;;;;;4890667;29;20047;-57
2022/06/03 02:53:11;;;;;;;5.20;3.08;;;13.50;99.90;;;;;;4888028;29;20044;-58
2022/06/03 02:55:53;;;;;;;4.07;2.80;;;13.50;99.90;;;;;;4888348;29;20370;-56
2022/06/03 02:58:36;;;;;;;5.95;3.42;;;13.60;99.90;;;;;;4888871;29;20044;-57
2022/06/03 03:01:14;;;;;;;4.43;3.15;;;13.50;99.90;;;;;;4890777;29;20073;-57
2022/06/03 03:04:19;;;;;;;9.45;3.42;;;13.50;99.90;;;;;;4889474;29;20044;-57
2022/06/03 03:07:39;;;;;;;3.60;2.88;;;13.50;99.90;;;;;;4888546;29;20040;-55
2022/06/03 03:10:30;;;;;;;4.03;2.80;;;13.50;99.90;;;;;;4904771;29;20071;-55
2022/06/03 03:13:09;;;;;;;8.05;3.17;;;13.50;99.90;;;;;;4886746;29;20049;-55
2022/06/03 03:15:52;;;;;;;7.20;3.70;;;13.50;99.90;;;;;;4888980;29;20055;-57
2022/06/03 03:18:38;;;;;;;6.30;3.78;;;13.50;99.90;;;;;;4888310;29;20329;-56
2022/06/03 03:21:44;;;;;;;5.22;3.47;;;13.40;99.90;;;;;;4888759;29;20049;-56
2022/06/03 03:24:33;;;;;;;6.57;4.30;;;13.40;99.90;;;;;;4888197;29;20382;-57
2022/06/03 03:27:26;;;;;;;5.57;3.47;;;13.30;99.90;;;;;;4888661;29;20404;-57
2022/06/03 03:30:07;;;;;;;5.20;4.40;;;13.30;99.90;;;;;;4889023;29;20304;-55
2022/06/03 03:32:49;;;;;;;6.50;4.47;;;13.20;99.90;;;;;;4890202;29;20045;-57
2022/06/03 03:35:20;;;;;;;8.75;4.32;;;13.10;99.90;;;;;;4890073;29;20057;-57
2022/06/03 03:38:25;;;;;;;5.13;4.10;;;13.10;99.90;;;;;;4889883;29;20041;-58
2022/06/03 03:40:59;;;;;;;6.22;4.40;;;13.00;99.90;;;;;;4889173;29;20053;-57
2022/06/03 03:43:55;;;;;;;6.93;4.13;;;13.00;99.90;;;;;;4889996;29;20311;-57
2022/06/03 03:46:37;;;;;;;4.70;3.85;;;12.90;99.90;;;;;;4888560;29;20044;-55
2022/06/03 03:49:23;;;;;;;11.13;4.50;;;12.90;99.90;;;;;;4889768;29;20040;-57
2022/06/03 03:52:05;;;;;;;6.80;4.22;;;12.80;99.90;;;;;;4888337;29;20053;-58
2022/06/03 03:55:06;;;;;;;5.97;4.15;;;12.80;99.90;;;;;;4890875;29;20063;-58
2022/06/03 03:57:58;;;;;;;6.25;4.55;;;12.70;99.90;;;;;;4889888;29;20067;-57
2022/06/03 04:00:32;;;;;;;10.73;5.18;;;12.60;99.90;;;;;;4887552;29;20060;-57
2022/06/03 04:03:34;;;;;;;9.48;4.50;;;12.50;99.90;;;;;;4889367;29;20516;-58
2022/06/03 04:06:16;;;;;;;9.07;5.30;;;12.50;99.90;;;;;;4889718;29;20040;-58
2022/06/03 04:08:56;;;;;;;6.40;4.72;;;12.40;99.90;;;;;;4888180;29;20045;-58
2022/06/03 04:12:01;;;;;;;9.70;4.90;;;12.30;99.90;;;;;;4888689;29;20051;-58
2022/06/03 04:15:17;;;;;;;6.72;4.72;;;12.30;99.90;;;;;;4890849;29;20498;-57
2022/06/03 04:18:12;;;;;;;8.07;5.03;;;12.20;99.90;;;;;;4884073;29;20572;-58
2022/06/03 04:21:00;;;;;;;7.43;4.50;;;12.20;99.90;;;;;;4888366;29;20064;-56
2022/06/03 04:23:51;;;;;;;7.38;4.88;;;12.10;99.90;;;;;;4888304;29;20064;-57
2022/06/03 04:26:40;;;;;;;6.68;5.00;;;12.10;99.90;;;;;;4889208;29;20048;-57
2022/06/03 04:29:41;;;;;;;7.32;4.53;;;12.10;99.90;;;;;;4885739;29;20044;-57
2022/06/03 04:32:42;;;;;;;6.20;4.40;;;12.10;99.90;;;;;;4888539;29;20525;-57
2022/06/03 04:35:45;;;;;;;6.85;4.60;;;12.10;99.90;;;;;;4888185;29;20056;-55
2022/06/03 04:39:04;;;;;;;8.68;5.35;;;12.00;99.90;;;;;;4888382;29;20068;-56
2022/06/03 04:41:59;;;;;;;7.72;4.75;;;12.10;99.90;;;;;;4889308;29;20044;-57
2022/06/03 04:45:03;;;;;;;7.68;4.28;;;12.10;99.90;;;;;;4888027;29;20049;-56
2022/06/03 04:47:52;;;;;;;7.68;5.15;;;12.10;99.90;;;;;;4884059;29;20075;-57
2022/06/03 04:50:48;;;;;;;8.88;5.75;;;12.10;99.90;;;;;;4881827;29;20049;-56
2022/06/03 04:53:54;;;;;;;9.10;5.47;;;12.10;99.90;;;;;;4885064;29;20037;-56
2022/06/03 04:56:52;;;;;;;7.22;5.03;;;12.20;99.90;;;;;;4882213;29;20052;-57
2022/06/03 05:00:06;;;;;;;8.75;5.93;;;12.20;99.90;;;;;;4884776;29;20049;-56
2022/06/03 05:03:20;;;;;;;6.88;5.30;;;12.20;99.90;;;;;;4881388;29;20053;-56
2022/06/03 05:06:09;;;;;;;7.45;5.00;;;12.20;99.90;;;;;;4883167;29;20059;-56
2022/06/03 05:09:12;;;;;;;9.00;5.72;;;12.20;99.90;;;;;;4883960;29;20052;-56
2022/06/03 05:12:14;;;;;;;8.93;5.35;;;12.20;99.90;;;;;;4882922;29;20041;-57
2022/06/03 05:15:00;;;;;;;8.95;4.75;;;12.20;99.90;;;;;;4884657;29;20049;-55
2022/06/03 05:18:02;;;;;;;8.00;5.30;;;12.30;99.90;;;;;;4880319;29;20069;-57
2022/06/03 05:20:58;;;;;;;7.13;4.80;;;12.20;99.90;;;;;;4880430;29;20389;-57
2022/06/03 05:24:03;;;;;;;7.93;5.13;;;12.30;99.90;;;;;;4884155;29;20060;-58
2022/06/03 05:27:08;;;;;;;7.53;5.13;;;12.30;99.90;;;;;;4886278;29;20072;-57
2022/06/03 05:29:54;;;;;;;11.68;5.32;;;12.30;99.90;;;;;;4886235;29;20060;-56
2022/06/03 05:32:43;;;;;;;7.55;5.15;;;12.30;99.90;;;;;;4880392;29;20049;-57
2022/06/03 05:35:40;;;;;;;7.35;5.28;;;12.40;99.90;;;;;;4882296;29;20935;-57
2022/06/03 05:38:49;;;;;;;8.70;5.30;;;12.40;99.90;;;;;;4883150;29;20059;-56
2022/06/03 05:45:04;;;;;;;8.07;5.30;;;12.50;99.90;;;;;;4883560;29;20056;-55
2022/06/03 05:48:10;;;;;;;9.30;5.55;;;12.60;99.90;;;;;;4875282;29;20055;-58
2022/06/03 05:50:46;;;;;;;8.43;5.50;;;12.60;99.90;;;;;;4866704;29;20063;-56
2022/06/03 05:53:34;;;;;;;9.38;6.65;;;12.70;99.90;;;;;;4883843;29;20055;-57
2022/06/03 05:56:06;;;;;;;13.48;5.90;;;12.70;99.90;;;;;;4886219;29;20052;-57
2022/06/03 05:58:52;;;;;;;9.85;6.65;;;12.80;99.90;;;;;;4883821;29;20040;-56
2022/06/03 06:01:36;;;;;;;11.57;6.57;;;12.80;99.90;;;;;;4880087;29;20060;-57
2022/06/03 06:04:14;;;;;;;7.57;5.40;;;12.90;99.90;;;;;;4879798;29;20048;-56
2022/06/03 06:06:57;;;;;;;10.05;5.97;;;13.00;99.90;;;;;;4881556;29;20473;-56
2022/06/03 06:09:31;;;;;;;7.80;5.10;;;13.00;99.90;;;;;;4880969;29;20052;-56
2022/06/03 06:12:34;;;;;;;8.45;5.10;;;13.00;99.90;;;;;;4882103;29;20394;-56
2022/06/03 06:15:41;;;;;;;7.28;5.13;;;13.10;99.90;;;;;;4882020;29;20493;-56
2022/06/03 06:18:43;;;;;;;5.70;3.97;;;13.10;99.90;;;;;;4876362;29;20508;-57
2022/06/03 06:21:21;;;;;;;5.25;4.10;;;13.20;99.90;;;;;;4881765;29;20418;-58
2022/06/03 06:23:57;;;;;;;7.35;4.30;;;13.30;99.90;;;;;;4889841;29;20449;-58
2022/06/03 06:26:43;;;;;;;6.28;4.90;;;13.40;99.90;;;;;;4887914;29;20060;-58
2022/06/03 06:29:54;;;;;;;7.00;4.90;;;13.50;99.90;;;;;;4886180;29;20096;-57
2022/06/03 06:32:34;;;;;;;8.43;4.55;;;13.60;99.90;;;;;;4885171;29;20052;-57
2022/06/03 06:35:11;;;;;;;7.10;4.88;;;13.70;99.90;;;;;;4882876;29;20048;-57
2022/06/03 06:37:56;;;;;;;7.43;4.72;;;13.80;99.90;;;;;;4885432;29;20049;-57
2022/06/03 06:40:59;;;;;;;6.65;4.57;;;13.80;99.90;;;;;;4885404;29;20049;-59
2022/06/03 06:43:49;;;;;;;6.72;4.75;;;13.90;99.90;;;;;;4886608;29;20060;-58
2022/06/03 06:46:33;;;;;;;8.05;4.65;;;13.90;99.90;;;;;;4879611;29;20056;-57
2022/06/03 06:49:20;;;;;;;8.00;4.82;;;14.00;99.90;;;;;;4890390;29;20055;-57
2022/06/03 06:52:12;;;;;;;8.85;5.15;;;14.00;99.90;;;;;;4894260;29;20370;-58
2022/06/03 06:54:50;;;;;;;6.97;4.95;;;14.10;99.90;;;;;;4893949;29;20413;-58
2022/06/03 06:58:00;;;;;;;8.68;6.15;;;14.10;99.90;;;;;;4894200;29;20056;-58
2022/06/03 07:00:32;;;;;;;16.13;5.25;;;14.10;99.90;;;;;;4858550;29;20516;-59
2022/06/03 07:03:06;;;;;;;7.88;5.80;;;14.20;99.90;;;;;;4890502;29;20052;-58
2022/06/03 07:05:39;;;;;;;9.68;5.90;;;14.20;99.90;;;;;;4894162;29;20508;-57
2022/06/03 07:08:21;;;;;;;9.00;6.05;;;14.20;99.90;;;;;;4895741;29;20052;-59
2022/06/03 07:10:54;;;;;;;7.85;5.53;;;14.20;99.90;;;;;;4897428;29;20640;-59
2022/06/03 07:13:31;;;;;;;10.43;5.60;;;14.20;99.90;;;;;;4896086;29;20064;-57
2022/06/03 07:15:59;;;;;;;9.23;5.30;;;14.30;99.90;;;;;;4888672;29;20053;-57
2022/06/03 07:21:41;;;;;;;8.18;5.95;;;14.40;99.90;;;;;;4895858;29;20409;-58
2022/06/03 07:24:21;;;;;;;9.30;5.55;;;14.40;99.90;;;;;;4895899;29;20060;-57
2022/06/03 07:26:56;;;;;;;11.18;5.95;;;14.30;99.90;;;;;;4888737;29;20052;-59
2022/06/03 07:29:48;;;;;;;7.93;5.53;;;14.30;99.90;;;;;;4892631;29;20055;-58
2022/06/03 07:32:22;;;;;;;8.00;5.60;;;14.30;99.90;;;;;;4880863;29;20423;-58
2022/06/03 07:35:11;;;;;;;8.90;6.07;;;14.30;99.90;;;;;;4895505;29;20551;-58
2022/06/03 07:38:04;;;;;;;8.90;6.15;;;14.40;99.90;;;;;;4894948;29;20049;-57
2022/06/03 07:40:40;;;;;;;9.95;6.20;;;14.40;99.90;;;;;;4858824;29;20056;-57
2022/06/03 07:43:39;;;;;;;11.20;6.35;;;14.50;99.90;;;;;;4886593;29;20048;-57
2022/06/03 07:46:33;;;;;;;7.85;5.53;;;14.60;99.90;;;;;;4884811;29;20048;-58
2022/06/03 07:49:04;;;;;;;9.02;5.53;;;14.70;99.90;;;;;;4892558;29;20055;-58
2022/06/03 07:51:46;;;;;;;7.70;5.55;;;14.80;99.90;;;;;;4893751;29;20460;-56
2022/06/03 07:54:26;;;;;;;9.15;5.80;;;14.80;99.90;;;;;;4893761;29;20041;-59
2022/06/03 07:57:10;;;;;;;7.95;5.47;;;14.90;99.90;;;;;;4894176;29;20044;-59
2022/06/03 07:59:42;;;;;;;9.38;5.85;;;15.00;99.90;;;;;;4893456;29;20041;-58
2022/06/03 08:02:16;;;;;;;8.38;5.78;;;15.10;99.90;;;;;;4892149;29;20624;-59
2022/06/03 08:05:09;;;;;;;13.25;6.28;;;15.10;99.90;;;;;;4895419;29;20044;-59
2022/06/03 08:13:19;;;;;;;7.78;5.63;;;15.10;99.90;;;;;;4891865;29;20405;-58
2022/06/03 08:16:02;;;;;;;6.78;5.78;;;15.20;99.90;;;;;;4878720;29;20049;-58
2022/06/03 08:18:40;;;;;;;10.10;6.05;;;15.30;99.90;;;;;;4890497;29;20057;-57
2022/06/03 08:21:11;;;;;;;9.52;5.32;;;15.40;99.90;;;;;;4873542;29;20056;-59
2022/06/03 08:23:40;;;;;;;10.77;5.68;;;15.50;99.90;;;;;;4886915;29;20385;-57
2022/06/03 08:26:13;;;;;;;10.07;6.10;;;15.60;99.90;;;;;;4887601;29;20044;-59
2022/06/03 08:28:46;;;;;;;8.02;4.95;;;15.70;99.90;;;;;;4875973;29;22140;-57
2022/06/03 08:31:17;;;;;;;8.07;4.60;;;15.70;99.90;;;;;;4879851;29;20524;-58
2022/06/03 08:33:53;;;;;;;8.57;5.32;;;15.70;99.90;;;;;;4881108;29;20045;-59
2022/06/03 08:36:34;;;;;;;9.23;4.75;;;15.70;99.90;;;;;;4875351;29;20064;-58
2022/06/03 08:39:12;;;;;;;9.07;4.97;;;15.70;99.90;;;;;;4891771;29;20522;-58
2022/06/03 08:42:00;;;;;;;7.60;4.75;;;15.70;99.90;;;;;;4892410;29;20441;-58
2022/06/03 08:44:41;;;;;;;8.55;4.57;;;15.70;99.90;;;;;;4883491;29;20045;-57
2022/06/03 08:47:29;;;;;;;8.98;4.63;;;15.70;99.90;;;;;;4879026;29;20049;-59
2022/06/03 08:50:30;;;;;;;11.02;5.22;;;15.70;99.90;;;;;;4887942;29;20536;-59
2022/06/03 08:53:19;;;;;;;9.25;4.63;;;15.90;99.90;;;;;;4885313;29;20056;-57
2022/06/03 08:55:53;;;;;;;6.00;4.68;;;16.00;99.90;;;;;;4891781;29;20056;-57
2022/06/03 08:58:52;;;;;;;8.43;5.53;;;16.10;99.90;;;;;;4884691;29;20059;-58
2022/06/03 09:01:43;;;;;;;10.30;5.50;;;16.20;99.90;;;;;;4872516;29;20045;-57
2022/06/03 09:04:21;;;;;;;9.57;6.95;;;16.40;99.90;;;;;;4887507;29;20052;-58
2022/06/03 09:06:52;;;;;;;9.10;5.25;;;16.50;99.90;;;;;;4882547;29;20188;-57
2022/06/03 09:09:33;;;;;;;7.90;5.45;;;16.60;99.90;;;;;;4889729;29;20056;-58
2022/06/03 09:12:36;;;;;;;13.73;5.35;;;16.70;99.90;;;;;;4872947;29;20067;-58
2022/06/03 09:15:11;;;;;;;7.95;5.57;;;16.80;99.90;;;;;;4877936;29;20045;-58
2022/06/03 09:17:41;;;;;;;12.10;5.00;;;16.90;99.90;;;;;;4867548;29;20063;-59
2022/06/03 09:20:16;;;;;;;9.98;5.55;;;17.00;99.90;;;;;;4890346;29;20052;-57
2022/06/03 09:22:46;;;;;;;8.68;5.38;;;17.10;99.90;;;;;;4884998;29;20041;-57
2022/06/03 09:25:16;;;;;;;7.95;5.20;;;17.20;99.90;;;;;;4890080;29;20431;-61
2022/06/03 09:27:46;;;;;;;6.65;4.70;;;17.40;99.90;;;;;;4882530;29;20052;-58
2022/06/03 09:30:17;;;;;;;;;;;17.50;98.20;;;;;;4885099;29;20049;-58
2022/06/03 09:32:47;;;;;;;;;;;17.60;98.30;;;;;;4885712;29;19923;-58
2022/06/03 09:35:20;;;;;;;11.35;4.65;;;17.70;98.40;;;;;;4882097;29;20372;-58
2022/06/03 09:37:55;;;;;;;7.40;3.80;;;17.80;96.50;;;;;;4885901;29;20045;-57
2022/06/03 09:40:28;;;;;;;5.57;3.45;;;17.90;95.40;;;;;;4887818;29;20075;-58
2022/06/03 09:43:17;;;;;;;8.82;3.92;;;17.90;94.90;;;;;;4879098;29;20044;-57
2022/06/03 09:45:47;;;;;;;6.18;3.40;;;18.00;95.20;;;;;;4875286;29;20045;-58
2022/06/03 09:48:17;;;;;;;6.30;2.70;;;18.10;94.00;;;;;;4872741;29;20516;-59
2022/06/03 09:50:47;;;;;;;4.38;2.30;;;18.10;92.70;;;;;;4885198;29;20053;-58
2022/06/03 09:53:19;;;;;;;4.70;3.10;;;18.20;90.90;;;;;;4889588;29;20072;-57
2022/06/03 09:55:53;;;;;;;5.13;3.08;;;18.30;91.10;;;;;;4890064;29;20501;-58
2022/06/03 09:58:29;;;;;;;3.45;2.53;;;18.50;90.90;;;;;;4891767;29;20052;-57
2022/06/03 10:00:58;;;;;;;6.30;3.53;;;18.60;89.20;;;;;;4893154;29;20071;-58
2022/06/03 10:03:27;;;;;;;4.53;2.70;;;18.70;89.50;;;;;;4895038;29;20508;-58
2022/06/03 10:05:58;;;;;;;4.93;2.85;;;18.80;87.30;;;;;;4892426;29;20048;-60
2022/06/03 10:14:05;;;;;;;3.20;2.17;;;19.10;86.00;;;;;;4886845;29;20071;-57
2022/06/03 10:16:32;;;;;;;3.13;2.53;;;19.20;82.70;;;;;;4888858;29;20493;-56
2022/06/03 10:19:00;;;;;;;3.40;2.22;;;19.20;83.50;;;;;;4884915;29;20049;-58
2022/06/03 10:21:31;;;;;;;3.03;1.55;;;19.30;81.40;;;;;;4890943;29;20052;-57
2022/06/03 10:24:03;;;;;;;2.65;2.03;;;19.40;79.50;;;;;;4887856;29;20386;-58
2022/06/03 10:26:49;;;;;;;3.80;2.10;;;19.40;80.20;;;;;;4893802;29;20052;-58
2022/06/03 10:29:20;;;;;;;3.38;1.58;;;19.40;79.20;;;;;;4892664;29;20382;-58
2022/06/03 10:31:55;;;;;;;3.83;2.25;;;19.40;77.90;;;;;;4890620;29;20508;-59
2022/06/03 10:34:38;;;;;;;2.47;2.22;;;19.40;78.40;;;;;;4888389;29;20047;-57
2022/06/03 10:37:14;;;;;;;2.40;2.10;;;19.40;79.60;;;;;;4891224;29;20053;-58
2022/06/03 10:39:43;;;;;;;3.15;1.90;;;19.40;80.30;;;;;;4893245;29;20055;-57
2022/06/03 10:42:17;;;;;;;4.68;2.03;;;19.50;77.90;;;;;;4894695;29;20052;-58
2022/06/03 10:44:54;;;;;;;3.88;1.45;;;19.60;78.10;;;;;;4876816;29;20056;-58
2022/06/03 10:47:34;;;;;;;2.78;1.85;;;19.80;75.40;;;;;;4881773;29;20044;-59
2022/06/03 10:50:08;;;;;;;3.53;1.73;;;19.90;75.60;;;;;;4876980;29;20044;-59
2022/06/03 11:01:23;;;;;;;4.32;1.60;;;20.00;76.20;;;;;;4888537;29;20419;-59
2022/06/03 11:03:53;;;;;;;2.90;2.33;;;20.10;75.50;;;;;;4888991;29;20056;-59
2022/06/03 11:06:24;;;;;;;4.47;1.80;;;20.20;75.60;;;;;;4887566;29;20056;-57
2022/06/03 11:08:59;;;;;;;3.22;2.00;;;20.30;76.70;;;;;;4868724;29;20060;-61
2022/06/03 11:11:44;;;;;;;2.85;2.00;;;20.50;76.10;;;;;;4856277;29;20527;-58
2022/06/03 11:14:32;;;;;;;4.68;2.40;;;20.70;75.50;;;;;;4880461;29;20061;-58
2022/06/03 11:17:08;;;;;;;3.70;2.50;;;21.00;75.50;;;;;;4881461;29;20052;-58
2022/06/03 11:19:40;;;;;;;3.60;2.00;;;21.20;76.40;;;;;;4880744;29;20045;-57
2022/06/03 11:22:16;;;;;;;3.28;1.90;;;21.30;75.50;;;;;;4876619;29;20053;-58
2022/06/03 11:25:10;;;;;;;2.67;2.17;;;21.50;74.20;;;;;;4882233;29;20045;-59
2022/06/03 11:27:55;;;;;;;3.58;1.83;;;21.60;72.80;;;;;;4882822;29;20053;-58
2022/06/03 11:30:32;;;;;;;4.25;1.40;;;21.70;73.50;;;;;;4875066;29;20532;-60
2022/06/03 11:33:09;;;;;;;2.50;1.98;;;21.70;71.80;;;;;;4887774;29;20540;-58
2022/06/03 11:35:56;;;;;;;4.10;1.63;;;21.70;71.40;;;;;;4886284;29;20497;-59
2022/06/03 11:38:34;;;;;;;3.75;1.70;;;21.80;72.70;;;;;;4880280;29;20060;-59
2022/06/03 11:41:06;;;;;;;3.95;1.88;;;21.90;70.40;;;;;;4865873;29;20048;-59
2022/06/03 11:43:53;;;;;;;2.80;1.80;;;22.00;70.40;;;;;;4883530;29;20060;-59
2022/06/03 11:46:39;;;;;;;5.57;2.67;;;22.10;70.90;;;;;;4882283;29;20049;-59
2022/06/03 11:49:08;;;;;;;4.43;1.80;;;22.40;71.80;;;;;;4880574;29;20055;-58
2022/06/03 11:51:36;;;;;;;3.08;2.35;;;22.60;71.40;;;;;;4884130;29;20045;-58
2022/06/03 11:54:15;;;;;;;4.00;1.88;;;22.80;71.70;;;;;;4883822;29;20053;-58
2022/06/03 11:56:45;;;;;;;1.80;1.27;;;23.10;69.80;;;;;;4887790;29;20105;-57
2022/06/03 11:59:40;;;;;;;3.40;1.55;;;23.20;67.20;;;;;;4887967;29;20051;-57
2022/06/03 12:02:15;;;;;;;4.35;1.90;;;23.40;68.20;;;;;;4889394;29;20053;-57
2022/06/03 12:04:51;;;;;;;4.53;2.40;;;23.60;65.70;;;;;;4879580;29;20044;-59
2022/06/03 12:07:38;;;;;;;5.35;2.30;;;23.60;67.20;;;;;;4885700;29;20048;-59
2022/06/03 12:10:22;;;;;;;4.45;2.47;;;23.70;68.90;;;;;;4886630;29;20052;-58
2022/06/03 12:13:21;;;;;;;3.03;2.13;;;23.80;67.80;;;;;;4882287;29;20078;-58
2022/06/03 12:16:14;;;;;;;1.95;1.67;;;24.00;68.70;;;;;;4886076;29;20446;-59
2022/06/03 12:18:57;;;;;;;3.70;2.53;;;24.30;66.30;;;;;;4885256;29;20072;-58
2022/06/03 12:21:29;;;;;;;5.72;2.90;;;24.50;66.70;;;;;;4892581;29;20060;-59
2022/06/03 12:24:38;;;;;;;2.67;2.00;;;24.70;66.20;;;;;;4883827;29;20083;-59
2022/06/03 12:27:32;;;;;;;6.13;2.55;;;24.70;65.20;;;;;;4891479;29;20076;-58
2022/06/03 12:30:18;;;;;;;4.03;2.40;;;24.70;63.90;;;;;;4886505;29;20151;-59
2022/06/03 12:33:08;;;;;;;3.78;1.85;;;24.50;63.10;;;;;;4880886;29;20122;-58
2022/06/03 12:35:43;;;;;;;5.22;2.88;;;24.40;64.90;;;;;;4885717;29;20045;-58
2022/06/03 12:38:20;;;;;;;5.05;2.47;;;24.40;65.00;;;;;;4884170;29;20675;-57
2022/06/03 12:40:50;;;;;;;4.93;2.70;;;24.50;64.70;;;;;;4876676;29;20051;-58
2022/06/03 12:43:45;;;;;;;4.63;2.42;;;24.40;64.10;;;;;;4882391;29;20060;-58
2022/06/03 12:46:33;;;;;;;5.15;2.60;;;24.30;64.70;;;;;;4881914;29;20045;-58
2022/06/03 12:49:01;;;;;;;5.75;2.72;;;24.20;64.80;;;;;;4875711;29;20040;-58
2022/06/03 12:51:37;;;;;;;5.13;2.40;;;24.40;63.50;;;;;;4879599;29;20052;-58
2022/06/03 12:54:17;;;;;;;5.68;2.95;;;24.40;63.60;;;;;;4886018;29;20060;-58
2022/06/03 12:57:12;;;;;;;5.50;2.20;;;24.10;62.70;;;;;;4891546;29;20083;-59
2022/06/03 12:59:59;;;;;;;3.17;2.40;;;23.70;62.50;;;;;;4886833;29;20053;-58
2022/06/03 13:02:36;;;;;;;4.97;1.98;;;23.40;64.10;;;;;;4889608;29;20060;-58
2022/06/03 13:05:11;;;;;;;4.07;2.35;;;23.10;65.20;;;;;;4891137;29;20052;-58
2022/06/03 13:08:00;;;;;;;2.45;2.00;;;23.00;65.50;;;;;;4887015;29;20481;-58
2022/06/03 13:10:49;;;;;;;5.25;2.35;;;23.00;65.80;;;;;;4887702;29;20861;-58
2022/06/03 13:13:34;;;;;;;2.40;2.17;;;22.90;64.80;;;;;;4887060;29;20556;-58
2022/06/03 13:16:23;;;;;;;5.97;2.40;;;22.70;65.50;;;;;;4873654;29;20048;-58
2022/06/03 13:18:54;;;;;;;6.05;2.05;;;22.70;65.30;;;;;;4889628;29;20064;-58
2022/06/03 13:21:47;;;;;;;3.20;2.65;;;22.70;66.30;;;;;;4890617;29;20049;-58
2022/06/03 13:24:25;;;;;;;4.63;2.67;;;22.90;66.60;;;;;;4889987;29;20055;-58
2022/06/03 13:27:20;;;;;;;6.85;3.42;;;23.20;67.70;;;;;;4893656;29;20520;-58
2022/06/03 13:29:52;;;;;;;4.82;3.33;;;23.20;66.70;;;;;;4891353;29;20059;-58
2022/06/03 13:32:41;;;;;;;5.07;3.25;;;23.00;67.70;;;;;;4892023;29;20060;-59
2022/06/03 13:35:25;;;;;;;5.43;3.17;;;23.00;68.30;;;;;;4862779;29;20072;-58
2022/06/03 13:37:55;;;;;;;6.57;3.63;;;23.20;67.80;;;;;;4889897;29;20114;-60
2022/06/03 13:40:26;;;;;;;6.60;3.58;;;23.40;68.40;;;;;;4892651;29;20068;-58
2022/06/03 13:43:00;;;;;;;6.05;3.70;;;23.30;67.40;;;;;;4893312;29;20049;-59
2022/06/03 13:45:55;;;;;;;5.20;3.78;;;23.30;68.70;;;;;;4889592;29;20078;-59
2022/06/03 13:48:56;;;;;;;9.32;3.85;;;23.50;69.10;;;;;;4882790;29;20527;-58
2022/06/03 13:51:37;;;;;;;7.55;4.25;;;23.70;68.50;;;;;;4889909;29;20064;-58
2022/06/03 13:54:21;;;;;;;6.38;2.83;;;23.40;68.00;;;;;;4880654;29;20049;-58
2022/06/03 13:56:54;;;;;;;5.80;3.80;;;22.90;69.20;;;;;;4878789;29;20067;-60
2022/06/03 13:59:23;;;;;;;3.95;3.55;;;22.50;70.30;;;;;;4880616;29;20044;-60
2022/06/03 14:01:55;;;;;;;6.13;4.00;;;22.20;71.40;;;;;;4884679;29;20051;-58
2022/06/03 14:04:32;;;;;;;5.95;3.90;;;22.00;72.00;;;;;;4878649;29;20044;-60
2022/06/03 14:07:03;;;;;;;7.53;3.80;;;21.90;73.70;;;;;;4885650;29;20048;-58
2022/06/03 14:09:47;;;;;;;6.28;4.03;;;22.40;73.00;;;;;;4883081;29;20049;-59
2022/06/03 14:12:23;;;;;;;11.82;3.58;;;22.80;70.70;;;;;;4877131;29;20057;-59
2022/06/03 14:15:22;;;;;;;5.68;3.53;;;22.90;70.60;;;;;;4895518;29;20517;-60
2022/06/03 14:17:58;;;;;;;5.30;3.67;;;23.00;70.90;;;;;;4865713;29;20079;-59
2022/06/03 14:21:07;;;;;;;5.28;3.72;;;23.20;70.60;;;;;;4886100;29;20083;-60
2022/06/03 14:23:39;;;;;;;6.90;3.85;;;23.70;69.70;;;;;;4861650;29;20057;-60
2022/06/03 14:26:17;;;;;;;7.05;3.72;;;24.10;68.00;;;;;;4862554;29;20052;-58
2022/06/03 14:28:59;;;;;;;6.03;3.50;;;24.20;68.30;;;;;;4872016;29;20524;-59
2022/06/03 14:31:39;;;;;;;4.03;2.70;;;24.30;68.80;;;;;;4884876;29;20060;-59
2022/06/03 14:34:18;;;;;;;5.18;2.90;;;24.00;69.30;;;;;;4879880;29;20049;-61
2022/06/03 14:36:49;;;;;;;5.23;3.10;;;23.60;69.90;;;;;;4879722;29;20045;-59
2022/06/03 14:39:22;;;;;;;8.15;3.75;;;23.20;71.10;;;;;;4876225;29;20651;-58
2022/06/03 14:41:53;;;;;;;5.88;3.28;;;23.00;71.50;;;;;;4881053;29;20520;-58
2022/06/03 14:44:25;;;;;;;5.45;3.33;;;23.20;71.20;;;;;;4881982;29;20405;-59
2022/06/03 14:47:30;;;;;;;5.00;3.15;;;23.00;71.10;;;;;;4880691;29;20057;-59